Woodbury, New York
Current Conditions -  °F | °C
As of 7:53 PM on Monday 26 Jan 2015 (Local Time) from KFRG Reporting Station
Light Snow Light Snow  
Wind Chill: 14°   Ceiling: 1200
Heat Index: 27°   Visibility: 0.75mi
Dew Point: 23°   Wind: 18mph
Humidity: 85%   Direction: 40°NE
Pressure: 29.77"   Gusts: 35mph
Location:  40.82°N, 73.46°W
Report Text: KFRG 270053Z AUTO 04016G30KT 3/4SM -SN BR FEW008 OVC012 M03/M05 A2977 RMK AO2 PK WND 05032/0019 SFC VIS 1 1/4 SLP081 P0001 T10281050
Loading
Personal Weather Stations






























Interactive Weather Map New forecast layout! Learn more

10-Day Weather Forecast

Advertisements
Track Severe Weather on mobile